Time;durP1;ratioP1;P1;durP2;ratioP2;P2;SDS_P1;SDS_P2;PMS_P1;PMS_P2;Temp;Humidity;BMP_temperature;BMP_pressure;BME280_temperature;BME280_humidity;BME280_pressure;Samples;Min_cycle;Max_cycle;Signal;HPM_P1;HPM_P2
2023/06/21 00:00:17;;;;;;;6.55;5.90;;;;;;;21.16;100.00;100407.44;4878328;29;20051;-81
2023/06/21 00:02:44;;;;;;;5.80;5.35;;;;;;;21.17;100.00;100398.50;4859386;29;20057;-78
2023/06/21 00:05:11;;;;;;;5.72;5.00;;;;;;;21.22;100.00;100395.56;4858815;29;20045;-80
2023/06/21 00:07:38;;;;;;;6.05;5.57;;;;;;;21.23;100.00;100384.00;4892751;29;20041;-85
2023/06/21 00:10:07;;;;;;;6.80;5.05;;;;;;;21.26;100.00;100390.00;4874045;29;20093;-81
2023/06/21 00:12:35;;;;;;;6.20;5.63;;;;;;;21.25;100.00;100385.63;4892762;29;20052;-81
2023/06/21 00:15:01;;;;;;;5.25;4.75;;;;;;;21.25;100.00;100387.41;4880708;29;20045;-78
2023/06/21 00:17:27;;;;;;;7.43;6.03;;;;;;;21.21;100.00;100383.22;4892224;29;20870;-80
2023/06/21 00:19:55;;;;;;;6.65;5.88;;;;;;;21.23;100.00;100376.00;4874888;29;20060;-81
2023/06/21 00:22:23;;;;;;;5.70;5.20;;;;;;;21.25;100.00;100382.06;4875153;29;20037;-81
2023/06/21 00:24:50;;;;;;;5.93;5.43;;;;;;;21.27;100.00;100383.72;4856256;29;20484;-83
2023/06/21 00:27:18;;;;;;;6.65;5.35;;;;;;;21.31;100.00;100384.38;4866889;29;20041;-78
2023/06/21 00:29:45;;;;;;;5.75;4.75;;;;;;;21.29;100.00;100380.97;4871204;29;20550;-84
2023/06/21 00:32:12;;;;;;;6.40;5.32;;;;;;;21.26;100.00;100378.47;4867522;29;20056;-78
2023/06/21 00:34:38;;;;;;;5.93;5.18;;;;;;;21.17;100.00;100369.22;4878698;29;20132;-80
2023/06/21 00:37:05;;;;;;;5.40;4.90;;;;;;;21.12;100.00;100361.50;4874172;29;20105;-79
2023/06/21 00:39:32;;;;;;;5.70;5.25;;;;;;;21.09;100.00;100358.16;4878467;29;20500;-80
2023/06/21 00:41:59;;;;;;;17.88;6.65;;;;;;;21.08;100.00;100367.09;4876255;29;20041;-82
2023/06/21 00:44:26;;;;;;;6.30;5.70;;;;;;;21.04;100.00;100365.56;4861086;29;20093;-79
2023/06/21 00:46:52;;;;;;;7.25;6.55;;;;;;;21.00;100.00;100370.19;4873815;29;20051;-79
2023/06/21 00:49:19;;;;;;;6.32;5.82;;;;;;;20.96;100.00;100374.84;4882190;29;20049;-81
2023/06/21 00:51:47;;;;;;;6.82;6.13;;;;;;;20.93;100.00;100374.16;4870222;29;20051;-78
2023/06/21 00:54:16;;;;;;;7.70;6.90;;;;;;;20.92;100.00;100369.78;4894722;29;20135;-81
2023/06/21 00:56:44;;;;;;;7.20;6.55;;;;;;;20.93;100.00;100374.16;4876379;29;20514;-78
2023/06/21 00:59:11;;;;;;;7.18;6.47;;;;;;;20.97;100.00;100367.72;4862115;29;20492;-78
2023/06/21 01:01:38;;;;;;;8.02;7.25;;;;;;;20.96;100.00;100360.66;4894641;29;20051;-78
2023/06/21 01:04:09;;;;;;;8.20;7.40;;;;;;;20.96;100.00;100366.88;4879737;29;20041;-79
2023/06/21 01:06:58;;;;;;;8.25;7.47;;;;;;;20.92;100.00;100367.97;4872190;29;20053;-78
2023/06/21 01:10:08;;;;;;;8.48;7.68;;;;;;;20.85;100.00;100369.28;4862068;29;20423;-79
2023/06/21 01:13:08;;;;;;;8.32;7.32;;;;;;;20.81;100.00;100375.72;4896373;29;20045;-79
2023/06/21 01:15:43;;;;;;;8.18;7.38;;;;;;;20.77;100.00;100374.19;4875943;29;20033;-80
2023/06/21 01:18:15;;;;;;;8.63;7.82;;;;;;;20.75;100.00;100370.72;4879148;29;20049;-79
2023/06/21 01:20:48;;;;;;;7.05;6.53;;;;;;;20.69;100.00;100373.69;4880769;29;20060;-78
2023/06/21 01:23:27;;;;;;;6.35;5.85;;;;;;;20.64;100.00;100389.91;4876198;29;20980;-83
2023/06/21 01:26:11;;;;;;;7.75;7.00;;;;;;;20.62;100.00;100386.47;4880092;29;20040;-79
2023/06/21 01:29:03;;;;;;;6.80;6.20;;;;;;;20.62;100.00;100381.16;4877434;29;20037;-79
2023/06/21 01:31:31;;;;;;;7.40;6.70;;;;;;;20.57;100.00;100381.44;4874077;29;20056;-78
2023/06/21 01:33:59;;;;;;;7.80;7.00;;;;;;;20.52;100.00;100388.81;4880253;29;20049;-78
2023/06/21 01:36:26;;;;;;;7.80;6.38;;;;;;;20.45;100.00;100393.56;4878518;29;20121;-79
2023/06/21 01:38:57;;;;;;;6.82;6.22;;;;;;;20.39;100.00;100393.03;4864821;29;20037;-78
2023/06/21 01:41:26;;;;;;;6.47;5.88;;;;;;;20.33;100.00;100391.59;4874418;29;20126;-78
2023/06/21 01:43:54;;;;;;;9.05;5.57;;;;;;;20.24;100.00;100398.25;4863054;29;20913;-84
2023/06/21 01:46:23;;;;;;;6.15;5.65;;;;;;;20.18;100.00;100403.91;4863596;29;20049;-79
2023/06/21 01:48:51;;;;;;;6.68;6.05;;;;;;;20.11;100.00;100406.00;4891399;29;20052;-84
2023/06/21 01:51:19;;;;;;;7.35;6.65;;;;;;;20.04;100.00;100403.75;4873464;29;20048;-83
2023/06/21 01:53:46;;;;;;;6.88;6.18;;;;;;;20.00;100.00;100408.41;4865074;29;20468;-82
2023/06/21 01:56:18;;;;;;;7.30;6.65;;;;;;;19.93;100.00;100410.53;4851981;29;20567;-85
2023/06/21 01:58:46;;;;;;;7.30;6.70;;;;;;;19.88;100.00;100404.59;4865094;29;20045;-79
2023/06/21 02:01:13;;;;;;;9.32;6.25;;;;;;;19.85;100.00;100411.84;4861466;29;20052;-80
2023/06/21 02:03:59;;;;;;;7.13;6.00;;;;;;;19.81;100.00;100414.66;4860012;29;20109;-81
2023/06/21 02:06:29;;;;;;;6.10;5.70;;;;;;;19.76;100.00;100416.63;4872078;29;20037;-82
2023/06/21 02:08:59;;;;;;;7.85;6.13;;;;;;;19.72;100.00;100425.72;4879796;29;20041;-78
2023/06/21 02:11:27;;;;;;;6.35;5.75;;;;;;;19.69;100.00;100427.69;4877981;29;20056;-79
2023/06/21 02:13:54;;;;;;;7.30;6.60;;;;;;;19.64;100.00;100442.03;4880986;29;20043;-79
2023/06/21 02:16:31;;;;;;;6.70;5.90;;;;;;;19.64;100.00;100447.34;4876891;29;20791;-80
2023/06/21 02:18:57;;;;;;;6.35;5.85;;;;;;;19.65;100.00;100446.41;4861329;29;20571;-80
2023/06/21 02:21:24;;;;;;;8.27;6.07;;;;;;;19.63;100.00;100452.72;4877357;29;20049;-80
2023/06/21 02:23:50;;;;;;;6.78;6.13;;;;;;;19.62;100.00;100456.31;4895678;29;20029;-79
2023/06/21 02:26:17;;;;;;;8.10;6.68;;;;;;;19.61;100.00;100463.44;4894359;29;20041;-80
2023/06/21 02:28:46;;;;;;;10.13;7.38;;;;;;;19.61;100.00;100463.44;4894817;29;20102;-79
2023/06/21 02:31:12;;;;;;;7.13;6.47;;;;;;;19.62;100.00;100453.66;4873846;29;20460;-80
2023/06/21 02:33:44;;;;;;;6.45;5.82;;;;;;;19.61;100.00;100452.81;4876689;29;20049;-79
2023/06/21 02:36:11;;;;;;;8.55;5.97;;;;;;;19.60;100.00;100469.69;4877533;29;20045;-79
2023/06/21 02:38:38;;;;;;;8.25;6.20;;;;;;;19.64;100.00;100479.19;4876763;29;20037;-79
2023/06/21 02:41:05;;;;;;;6.57;6.07;;;;;;;19.72;100.00;100484.13;4864402;29;20047;-79
2023/06/21 02:43:31;;;;;;;7.22;6.35;;;;;;;19.80;100.00;100481.97;4864165;29;20048;-80
2023/06/21 02:45:58;;;;;;;7.40;6.72;;;;;;;19.85;100.00;100478.25;4877070;29;20045;-81
2023/06/21 02:48:25;;;;;;;8.02;7.22;;;;;;;19.85;100.00;100484.41;4877368;29;20041;-79
2023/06/21 02:50:52;;;;;;;7.85;7.05;;;;;;;19.85;100.00;100478.25;4878912;29;20452;-79
2023/06/21 02:53:18;;;;;;;7.72;6.90;;;;;;;19.82;100.00;100481.94;4876651;29;20183;-80
2023/06/21 02:55:45;;;;;;;11.02;6.47;;;;;;;19.80;100.00;100489.94;4890233;29;20118;-79
2023/06/21 02:58:11;;;;;;;9.23;7.78;;;;;;;19.80;100.00;100483.75;4873694;29;20045;-79
2023/06/21 03:00:40;;;;;;;8.48;7.60;;;;;;;19.76;100.00;100479.53;4875685;29;20043;-79
2023/06/21 03:03:07;;;;;;;10.60;8.10;;;;;;;19.67;100.00;100486.16;4880186;29;20041;-79
2023/06/21 03:05:35;;;;;;;10.57;8.32;;;;;;;19.63;100.00;100495.22;4893184;29;20037;-78
2023/06/21 03:08:04;;;;;;;10.23;8.60;;;;;;;19.58;100.00;100494.59;4896191;29;20544;-85
2023/06/21 03:10:32;;;;;;;11.40;9.60;;;;;;;19.52;100.00;100506.38;4861173;29;20085;-79
2023/06/21 03:12:59;;;;;;;9.27;8.27;;;;;;;19.49;100.00;100503.88;4860972;29;20049;-80
2023/06/21 03:15:26;;;;;;;9.82;8.93;;;;;;;19.46;100.00;100506.66;4873662;29;20051;-83
2023/06/21 03:17:52;;;;;;;9.55;8.60;;;;;;;19.45;100.00;100502.28;4868040;29;20385;-83
2023/06/21 03:20:19;;;;;;;11.88;10.25;;;;;;;19.42;100.00;100507.75;4894583;29;20064;-79
2023/06/21 03:22:45;;;;;;;11.23;9.38;;;;;;;19.39;100.00;100508.75;4874144;29;20053;-79
2023/06/21 03:25:16;;;;;;;14.65;10.10;;;;;;;19.37;100.00;100512.41;4861528;29;21077;-80
2023/06/21 03:27:43;;;;;;;12.60;10.50;;;;;;;19.34;100.00;100514.28;4875817;29;20840;-79
2023/06/21 03:30:12;;;;;;;11.60;9.23;;;;;;;19.31;100.00;100506.47;4874828;29;20053;-81
2023/06/21 03:32:46;;;;;;;13.45;8.57;;;;;;;19.28;100.00;100522.56;4876670;29;20174;-79
2023/06/21 03:35:14;;;;;;;12.15;10.63;;;;;;;19.26;100.00;100527.06;4878718;29;20069;-79
2023/06/21 03:37:40;;;;;;;13.57;11.10;;;;;;;19.22;100.00;100533.44;4876674;29;20052;-79
2023/06/21 03:40:11;;;;;;;12.07;9.68;;;;;;;19.23;100.00;100539.59;4874890;29;20084;-79
2023/06/21 03:42:38;;;;;;;11.93;10.00;;;;;;;19.19;100.00;100536.25;4893015;29;20052;-80
2023/06/21 03:45:06;;;;;;;13.75;11.02;;;;;;;19.17;100.00;100538.09;4875471;29;20037;-80
2023/06/21 03:47:32;;;;;;;11.77;10.10;;;;;;;19.18;100.00;100547.78;4876886;29;20056;-82
2023/06/21 03:49:59;;;;;;;16.25;10.15;;;;;;;19.18;100.00;100555.75;4874964;29;20070;-80
2023/06/21 03:52:26;;;;;;;14.75;11.32;;;;;;;19.19;100.00;100568.09;4858611;29;20053;-80
2023/06/21 03:54:54;;;;;;;13.25;10.43;;;;;;;19.21;100.00;100570.69;4874301;29;20113;-80
2023/06/21 03:57:20;;;;;;;12.10;10.82;;;;;;;19.24;100.00;100581.13;4876353;29;20048;-80
2023/06/21 03:59:47;;;;;;;13.18;10.68;;;;;;;19.25;100.00;100585.53;4874642;29;20045;-79
2023/06/21 04:02:14;;;;;;;13.90;10.90;;;;;;;19.27;100.00;100581.00;4895550;29;20864;-83
2023/06/21 04:04:40;;;;;;;12.32;9.50;;;;;;;19.29;100.00;100587.09;4875105;29;20064;-79
2023/06/21 04:07:07;;;;;;;19.48;12.32;;;;;;;19.33;100.00;100594.84;4878200;29;20033;-79
2023/06/21 04:09:35;;;;;;;14.25;11.00;;;;;;;19.39;100.00;100599.00;4877347;29;20049;-78
2023/06/21 04:12:02;;;;;;;13.35;9.98;;;;;;;19.43;100.00;100603.22;4859636;29;20140;-80
2023/06/21 04:14:29;;;;;;;11.52;9.77;;;;;;;19.48;100.00;100608.34;4861927;29;20053;-86
2023/06/21 04:16:55;;;;;;;13.63;10.27;;;;;;;19.51;100.00;100609.03;4878451;29;20061;-83
2023/06/21 04:19:22;;;;;;;11.73;10.50;;;;;;;19.55;100.00;100609.75;4879839;29;20049;-79
2023/06/21 04:21:48;;;;;;;10.85;9.73;;;;;;;19.60;100.00;100610.41;4847822;29;20147;-79
2023/06/21 04:24:15;;;;;;;10.30;9.25;;;;;;;19.61;100.00;100614.78;4863439;29;20041;-80
2023/06/21 04:26:41;;;;;;;14.25;9.35;;;;;;;19.64;100.00;100621.75;4862930;29;20040;-81
2023/06/21 04:29:08;;;;;;;13.30;9.65;;;;;;;19.66;100.00;100635.84;4863267;29;20140;-79
2023/06/21 04:31:37;;;;;;;10.43;8.80;;;;;;;19.68;100.00;100641.91;4863065;29;20049;-79
2023/06/21 04:34:05;;;;;;;11.75;8.50;;;;;;;19.69;100.00;100640.97;4863616;29;20079;-79
2023/06/21 04:40:21;;;;;;;10.77;9.10;;;;;;;19.75;100.00;100647.78;4878440;29;20041;-79
2023/06/21 04:42:54;;;;;;;11.88;9.00;;;;;;;19.75;100.00;100642.47;4867362;29;20041;-79
2023/06/21 04:45:21;;;;;;;10.40;8.75;;;;;;;19.80;100.00;100651.97;4864892;29;20045;-79
2023/06/21 04:47:48;;;;;;;8.75;7.85;;;;;;;19.86;100.00;100645.53;4859582;29;20121;-83
2023/06/21 04:50:16;;;;;;;11.60;8.10;;;;;;;19.91;100.00;100653.28;4858162;29;20045;-79
2023/06/21 04:52:48;;;;;;;8.63;7.32;;;;;;;19.91;100.00;100655.94;4861889;29;20473;-79
2023/06/21 04:55:17;;;;;;;12.25;7.10;;;;;;;19.96;100.00;100654.78;4866456;29;20095;-81
2023/06/21 04:57:44;;;;;;;9.25;6.97;;;;;;;20.00;100.00;100661.66;4850617;29;20515;-80
2023/06/21 05:00:11;;;;;;;7.28;6.57;;;;;;;20.05;100.00;100666.75;4865666;29;20056;-79
2023/06/21 05:02:38;;;;;;;6.93;5.70;;;;;;;20.08;100.00;100666.59;4865370;29;20065;-80
2023/06/21 05:05:05;;;;;;;6.88;5.40;;;;;;;20.14;100.00;100662.78;4865302;29;20045;-79
2023/06/21 05:07:31;;;;;;;8.27;6.15;;;;;;;20.14;100.00;100668.09;4849915;29;20572;-81
2023/06/21 05:09:58;;;;;;;7.10;5.20;;;;;;;20.16;100.00;100668.88;4865569;29;20059;-81
2023/06/21 05:12:24;;;;;;;8.57;5.25;;;;;;;20.19;100.00;100668.72;4865242;29;20230;-81
2023/06/21 05:14:51;;;;;;;10.00;5.95;;;;;;;20.24;100.00;100669.34;4865468;29;20045;-80
2023/06/21 05:17:17;;;;;;;10.82;5.40;;;;;;;20.27;100.00;100668.34;4855488;29;20076;-79
2023/06/21 05:19:44;;;;;;;11.07;5.47;;;;;;;20.29;100.00;100672.66;4851726;29;20049;-80
2023/06/21 05:22:10;;;;;;;6.70;5.63;;;;;;;20.33;100.00;100668.91;4895891;29;20056;-81
2023/06/21 05:24:37;;;;;;;6.57;4.80;;;;;;;20.39;100.00;100675.72;4881045;29;20037;-79
2023/06/21 05:27:04;;;;;;;6.57;5.93;;;;;;;20.42;100.00;100677.38;4881786;29;20043;-81
2023/06/21 05:29:31;;;;;;;5.80;5.22;;;;;;;20.48;100.00;100677.94;4880295;29;20051;-81
2023/06/21 05:31:57;;;;;;;6.53;5.53;;;;;;;20.48;100.00;100675.28;4876057;29;20139;-80
2023/06/21 05:34:26;;;;;;;5.78;5.22;;;;;;;20.47;100.00;100684.19;4882714;29;20044;-83
2023/06/21 05:36:52;;;;;;;6.13;5.53;;;;;;;20.49;100.00;100690.28;4876002;29;20045;-81
2023/06/21 05:39:19;;;;;;;7.03;5.28;;;;;;;20.52;100.00;100683.97;4878215;29;20048;-80
2023/06/21 05:41:45;;;;;;;5.95;5.32;;;;;;;20.50;100.00;100691.16;4881832;29;20051;-79
2023/06/21 05:44:11;;;;;;;5.80;5.30;;;;;;;20.50;100.00;100692.00;4865788;29;20445;-81
2023/06/21 05:46:38;;;;;;;8.35;6.20;;;;;;;20.56;100.00;100711.25;4865543;29;20041;-81
2023/06/21 05:49:04;;;;;;;8.10;5.18;;;;;;;20.64;100.00;100712.59;4866108;29;20051;-80
2023/06/21 05:51:31;;;;;;;6.55;5.28;;;;;;;20.74;100.00;100715.69;4881788;29;20049;-80
2023/06/21 05:53:58;;;;;;;5.63;5.13;;;;;;;20.76;100.00;100708.47;4881003;29;20473;-81
2023/06/21 05:56:26;;;;;;;6.40;5.80;;;;;;;20.67;100.00;100711.56;4881246;29;20041;-81
2023/06/21 05:58:53;;;;;;;8.43;5.07;;;;;;;20.58;100.00;100720.00;4882409;29;20421;-80
2023/06/21 06:01:21;;;;;;;8.40;4.90;;;;;;;20.60;100.00;100718.16;4881183;29;20525;-80
2023/06/21 06:03:48;;;;;;;6.03;5.30;;;;;;;20.67;100.00;100715.06;4881582;29;20041;-80
2023/06/21 06:06:15;;;;;;;6.50;5.30;;;;;;;20.74;100.00;100714.81;4879666;29;20048;-80
2023/06/21 06:08:42;;;;;;;5.60;4.85;;;;;;;20.68;100.00;100726.59;4896015;29;20096;-85
2023/06/21 06:11:08;;;;;;;10.05;5.20;;;;;;;20.63;100.00;100726.81;4879986;29;20045;-80
2023/06/21 06:13:35;;;;;;;7.45;4.63;;;;;;;20.66;100.00;100736.44;4881092;29;20045;-84
2023/06/21 06:16:02;;;;;;;4.85;4.38;;;;;;;20.73;100.00;100734.38;4883665;29;20041;-81
2023/06/21 06:18:29;;;;;;;5.07;4.57;;;;;;;20.80;100.00;100736.63;4892779;29;20080;-80
2023/06/21 06:20:55;;;;;;;5.15;4.50;;;;;;;20.85;100.00;100739.09;4882072;29;20057;-80
2023/06/21 06:23:22;;;;;;;6.03;4.82;;;;;;;20.94;100.00;100748.41;4881205;29;20041;-80
2023/06/21 06:25:48;;;;;;;5.32;4.25;;;;;;;21.03;100.00;100755.03;4880515;29;20085;-80
2023/06/21 06:28:15;;;;;;;8.05;4.25;;;;;;;21.14;100.00;100756.19;4864721;29;20537;-79
2023/06/21 06:30:41;;;;;;;5.20;4.80;;;;;;;21.26;99.39;100754.72;4880193;29;20049;-81
2023/06/21 06:33:08;;;;;;;5.40;4.25;;;;;;;21.31;98.63;100751.81;4879936;29;20097;-83
2023/06/21 06:35:34;;;;;;;4.72;4.28;;;;;;;21.41;98.52;100754.88;4879504;29;20033;-82
2023/06/21 06:38:00;;;;;;;5.55;4.18;;;;;;;21.57;95.34;100750.44;4864790;29;20049;-81
2023/06/21 06:40:27;;;;;;;7.47;4.75;;;;;;;21.63;95.00;100767.94;4880412;29;20061;-81
2023/06/21 06:42:53;;;;;;;4.65;4.18;;;;;;;21.63;93.97;100763.44;4879761;29;20036;-82
2023/06/21 06:45:20;;;;;;;4.85;4.25;;;;;;;21.62;93.56;100763.53;4880333;29;20052;-79
2023/06/21 06:47:47;;;;;;;4.93;4.53;;;;;;;21.68;93.45;100767.66;4880336;29;20105;-79
2023/06/21 06:50:13;;;;;;;6.13;4.32;;;;;;;21.74;93.06;100765.53;4865503;29;20048;-79
2023/06/21 06:52:40;;;;;;;4.60;4.20;;;;;;;21.77;92.95;100768.03;4866013;29;20033;-80
2023/06/21 06:55:07;;;;;;;8.48;4.72;;;;;;;21.80;92.91;100775.00;4867250;29;20069;-81
2023/06/21 06:57:33;;;;;;;5.68;4.47;;;;;;;21.85;92.66;100782.75;4883621;29;20044;-80
2023/06/21 07:00:00;;;;;;;4.13;3.83;;;;;;;21.96;92.33;100780.38;4882714;29;20045;-84
2023/06/21 07:02:26;;;;;;;4.63;4.22;;;;;;;22.07;91.50;100780.66;4865475;29;20041;-81
2023/06/21 07:04:53;;;;;;;8.63;4.80;;;;;;;22.10;91.02;100787.59;4878107;29;20150;-83
2023/06/21 07:07:19;;;;;;;7.53;3.92;;;;;;;22.06;90.41;100792.25;4882905;29;20037;-80
2023/06/21 07:09:46;;;;;;;5.13;3.55;;;;;;;22.05;90.94;100779.84;4877369;29;20069;-81
2023/06/21 07:12:12;;;;;;;3.90;3.47;;;;;;;22.16;90.73;100786.41;4865449;29;20053;-80
2023/06/21 07:14:39;;;;;;;6.93;4.45;;;;;;;22.19;89.27;100778.22;4886549;29;20048;-79
2023/06/21 07:17:05;;;;;;;4.18;3.78;;;;;;;22.14;89.39;100786.50;4888359;29;20075;-80
2023/06/21 07:19:32;;;;;;;4.72;4.22;;;;;;;22.14;89.68;100795.34;4902178;29;20060;-80
2023/06/21 07:21:58;;;;;;;4.28;3.97;;;;;;;22.19;89.08;100804.88;4883318;29;20067;-85
2023/06/21 07:24:25;;;;;;;4.82;4.47;;;;;;;22.28;88.92;100807.91;4878022;29;20045;-79
2023/06/21 07:26:51;;;;;;;6.18;4.45;;;;;;;22.47;87.63;100812.25;4862204;29;20159;-82
2023/06/21 07:29:18;;;;;;;4.70;4.20;;;;;;;22.82;85.66;100813.84;4877014;29;20044;-80
2023/06/21 07:31:44;;;;;;;6.38;4.63;;;;;;;23.13;84.69;100824.44;4871823;29;20049;-80
2023/06/21 07:34:12;;;;;;;4.57;3.88;;;;;;;23.57;81.86;100814.75;4914780;29;20068;-80
2023/06/21 07:36:39;;;;;;;4.97;3.95;;;;;;;23.94;79.54;100817.00;4910198;29;20061;-80
2023/06/21 07:39:06;;;;;;;4.00;3.70;;;;;;;24.15;79.96;100817.44;4880706;29;20048;-80
2023/06/21 07:41:32;;;;;;;4.63;4.20;;;;;;;24.54;75.70;100823.00;4864663;29;20037;-80
2023/06/21 07:43:59;;;;;;;5.00;4.50;;;;;;;24.83;75.92;100817.56;4884926;29;20045;-80
2023/06/21 07:46:25;;;;;;;5.38;4.32;;;;;;;25.46;73.95;100813.34;4864776;29;20147;-80
2023/06/21 07:48:52;;;;;;;4.30;3.97;;;;;;;25.79;71.16;100820.00;4883329;29;20065;-81
2023/06/21 07:51:18;;;;;;;4.57;4.18;;;;;;;26.17;70.05;100820.94;4873831;29;20055;-81
2023/06/21 07:53:45;;;;;;;4.40;4.00;;;;;;;26.44;68.09;100828.81;4867711;29;20049;-81
2023/06/21 07:56:14;;;;;;;5.18;4.20;;;;;;;26.42;67.74;100836.09;4878412;29;20041;-81
2023/06/21 07:58:43;;;;;;;4.25;3.65;;;;;;;26.59;68.46;100829.50;4863090;29;20067;-80
2023/06/21 08:01:09;;;;;;;4.60;4.20;;;;;;;26.78;67.42;100839.75;4862766;29;20044;-82
2023/06/21 08:03:36;;;;;;;4.30;4.10;;;;;;;26.59;68.34;100837.53;4878054;29;20559;-82
2023/06/21 08:06:02;;;;;;;5.45;4.55;;;;;;;26.41;69.68;100837.94;4877948;29;20052;-81
2023/06/21 08:08:29;;;;;;;6.07;4.28;;;;;;;26.31;70.04;100842.25;4893353;29;20388;-81
2023/06/21 08:10:56;;;;;;;5.53;4.82;;;;;;;25.98;71.11;100838.28;4877740;29;20116;-81
2023/06/21 08:13:23;;;;;;;6.72;6.15;;;;;;;25.71;72.30;100831.25;4878042;29;20069;-81
2023/06/21 08:15:51;;;;;;;6.60;6.10;;;;;;;25.68;72.18;100838.66;4867848;29;20036;-85
2023/06/21 08:18:18;;;;;;;5.70;5.15;;;;;;;25.75;72.24;100830.06;4883234;29;20105;-92
2023/06/21 08:20:44;;;;;;;6.35;4.22;;;;;;;26.13;71.68;100827.50;4875466;29;20055;-94
2023/06/21 08:23:11;;;;;;;5.60;5.07;;;;;;;27.12;68.41;100831.84;4892200;29;20544;-84
2023/06/21 08:25:37;;;;;;;6.25;5.70;;;;;;;27.89;65.47;100823.19;4864823;29;20335;-81
2023/06/21 08:28:04;;;;;;;12.15;8.73;;;;;;;28.68;62.31;100816.03;4882411;29;20469;-82
2023/06/21 08:30:31;;;;;;;5.30;4.80;;;;;;;28.51;61.84;100820.09;4873741;29;20093;-81
2023/06/21 08:32:59;;;;;;;4.88;4.47;;;;;;;28.61;62.42;100812.13;4860609;29;20481;-80
2023/06/21 08:35:25;;;;;;;5.50;5.07;;;;;;;28.96;61.32;100817.28;4863197;29;20108;-80
2023/06/21 08:37:59;;;;;;;7.07;5.75;;;;;;;29.26;60.33;100820.19;4878156;29;20105;-80
2023/06/21 08:40:30;;;;;;;6.28;5.72;;;;;;;28.98;58.98;100828.78;4843417;29;20114;-81
2023/06/21 08:42:58;;;;;;;6.20;5.60;;;;;;;28.35;61.33;100831.28;4872663;29;20045;-82
2023/06/21 08:45:25;;;;;;;4.88;4.47;;;;;;;28.27;62.76;100823.81;4882608;29;20095;-81
2023/06/21 08:47:52;;;;;;;5.63;5.05;;;;;;;28.83;60.20;100825.53;4878076;29;20033;-84
2023/06/21 08:50:23;;;;;;;4.93;4.53;;;;;;;29.64;57.97;100832.22;4875018;29;20484;-81
2023/06/21 08:52:55;;;;;;;5.32;4.82;;;;;;;30.61;53.99;100844.41;4875370;29;20037;-81
2023/06/21 08:55:23;;;;;;;5.10;4.70;;;;;;;31.60;49.87;100841.53;4872179;29;20045;-82
2023/06/21 08:57:58;;;;;;;4.05;3.75;;;;;;;31.89;49.14;100847.88;4874133;29;20056;-85
2023/06/21 09:00:33;;;;;;;5.75;5.32;;;;;;;31.17;48.48;100854.56;4887991;29;20061;-86
2023/06/21 09:03:15;;;;;;;5.50;4.97;;;;;;;30.23;49.47;100854.94;4882097;29;20600;-81
2023/06/21 09:05:51;;;;;;;7.47;5.50;;;;;;;30.32;49.47;100847.88;4879737;29;20059;-81
2023/06/21 09:08:17;;;;;;;6.18;5.65;;;;;;;30.34;48.78;100852.13;4884048;29;20041;-83
2023/06/21 09:10:48;;;;;;;6.97;6.47;;;;;;;30.35;49.17;100861.97;4871044;29;20037;-82
2023/06/21 09:13:15;;;;;;;7.18;6.47;;;;;;;30.48;48.66;100856.34;4874679;29;20068;-84
2023/06/21 09:15:42;;;;;;;5.90;5.35;;;;;;;30.15;49.13;100858.31;4875945;29;20109;-85
2023/06/21 09:18:09;;;;;;;6.65;5.90;;;;;;;29.72;50.02;100864.78;4870275;29;20133;-84
2023/06/21 09:20:36;;;;;;;7.03;5.18;;;;;;;30.11;45.96;100861.44;4874821;29;20477;-82
2023/06/21 09:23:03;;;;;;;6.10;5.47;;;;;;;29.83;46.27;100866.56;4873832;29;20053;-82
2023/06/21 09:25:29;;;;;;;5.50;5.07;;;;;;;29.41;47.38;100859.34;4857587;29;20045;-82
2023/06/21 09:27:56;;;;;;;5.97;5.35;;;;;;;29.53;47.01;100869.06;4875142;29;20028;-87
2023/06/21 09:30:26;;;;;;;5.85;5.35;;;;;;;30.48;44.45;100866.28;4843321;29;20053;-81
2023/06/21 09:32:52;;;;;;;4.53;4.22;;;;;;;31.07;43.04;100871.78;4886067;29;20098;-81
2023/06/21 09:35:19;;;;;;;5.47;4.55;;;;;;;31.72;41.23;100872.00;4872601;29;20048;-81
2023/06/21 09:37:46;;;;;;;4.95;4.53;;;;;;;32.76;38.94;100879.13;4861321;29;20713;-84
2023/06/21 09:40:13;;;;;;;6.07;5.68;;;;;;;33.20;37.74;100880.19;4861883;29;20068;-81
2023/06/21 09:42:46;;;;;;;6.70;6.03;;;;;;;33.42;36.38;100877.00;4879247;29;20126;-84
2023/06/21 09:45:14;;;;;;;6.63;6.00;;;;;;;33.78;36.59;100874.19;4888887;29;20100;-82
2023/06/21 09:47:41;;;;;;;6.45;5.95;;;;;;;33.88;36.14;100879.53;4864953;29;20044;-83
2023/06/21 09:50:09;;;;;;;7.20;6.57;;;;;;;34.17;35.32;100875.63;4881677;29;20041;-84
2023/06/21 09:52:36;;;;;;;7.32;6.80;;;;;;;34.24;34.98;100873.94;4880858;29;20072;-85
2023/06/21 09:55:04;;;;;;;9.13;6.35;;;;;;;34.90;35.06;100879.59;4856350;29;20037;-81
2023/06/21 09:57:32;;;;;;;7.75;7.05;;;;;;;35.26;32.13;100884.69;4901493;29;20127;-82
2023/06/21 10:00:00;;;;;;;7.38;6.72;;;;;;;35.11;32.08;100895.44;4876477;29;20049;-85
2023/06/21 10:02:28;;;;;;;7.25;6.72;;;;;;;34.38;34.38;100887.94;4875286;29;20667;-82
2023/06/21 10:04:55;;;;;;;10.60;7.13;;;;;;;33.80;35.21;100891.19;4876561;29;20428;-83
2023/06/21 10:07:24;;;;;;;7.63;6.97;;;;;;;34.24;34.75;100892.09;4879585;29;20049;-83
2023/06/21 10:09:51;;;;;;;7.53;6.80;;;;;;;34.58;33.39;100897.50;4879590;29;20048;-82
2023/06/21 10:12:18;;;;;;;8.38;7.78;;;;;;;34.68;33.17;100886.50;4882135;29;20055;-83
2023/06/21 10:14:44;;;;;;;7.65;6.88;;;;;;;34.54;34.20;100892.59;4880417;29;20120;-82
2023/06/21 10:17:12;;;;;;;8.57;7.88;;;;;;;34.74;33.57;100891.25;4879540;29;20045;-82
2023/06/21 10:19:41;;;;;;;7.85;7.35;;;;;;;35.11;32.61;100895.44;4865083;29;20622;-82
2023/06/21 10:22:10;;;;;;;7.40;6.90;;;;;;;35.55;32.22;100888.81;4871895;29;20049;-88
2023/06/21 10:24:49;;;;;;;9.18;8.32;;;;;;;34.85;33.03;100898.28;4895899;29;20037;-82
2023/06/21 10:27:17;;;;;;;8.05;7.35;;;;;;;34.83;33.64;100896.72;4876145;29;20492;-82
2023/06/21 10:29:46;;;;;;;8.23;7.57;;;;;;;35.25;32.68;100903.91;4878708;29;20045;-83
2023/06/21 10:32:13;;;;;;;9.07;8.27;;;;;;;35.54;32.70;100908.00;4879291;29;20037;-84
2023/06/21 10:34:59;;;;;;;8.60;8.00;;;;;;;35.75;31.99;100902.88;4864562;29;20045;-84
2023/06/21 10:37:37;;;;;;;7.57;7.00;;;;;;;36.13;32.25;100907.75;4858059;29;20041;-83
2023/06/21 10:40:07;;;;;;;8.18;7.38;;;;;;;36.70;30.81;100914.84;4879161;29;20143;-84
2023/06/21 10:42:35;;;;;;;8.20;7.43;;;;;;;37.05;30.42;100904.41;4878959;29;20200;-83
2023/06/21 10:45:05;;;;;;;7.97;7.18;;;;;;;36.42;30.32;100909.84;4891058;29;20041;-84
2023/06/21 10:47:32;;;;;;;8.73;8.02;;;;;;;34.99;32.71;100912.25;4872116;29;20049;-82
2023/06/21 10:50:02;;;;;;;7.82;7.22;;;;;;;34.53;34.01;100908.03;4878504;29;20052;-83
2023/06/21 10:52:31;;;;;;;7.78;7.18;;;;;;;35.86;32.38;100912.59;4886793;29;20108;-81
2023/06/21 10:54:58;;;;;;;7.53;6.93;;;;;;;36.09;31.97;100907.25;4876399;29;20678;-82
2023/06/21 10:57:26;;;;;;;7.65;7.05;;;;;;;36.83;30.83;100913.41;4890626;29;20143;-83
2023/06/21 10:59:56;;;;;;;6.35;5.95;;;;;;;37.00;30.73;100916.88;4863159;29;20073;-81
2023/06/21 11:02:26;;;;;;;6.50;5.93;;;;;;;37.55;28.86;100904.84;4893463;29;20049;-81
2023/06/21 11:05:18;;;;;;;5.40;5.03;;;;;;;37.81;28.69;100919.97;4861978;29;20040;-81
2023/06/21 11:08:05;;;;;;;5.50;5.00;;;;;;;38.27;28.05;100918.13;4879103;29;20705;-83
2023/06/21 11:10:42;;;;;;;6.60;5.88;;;;;;;37.39;28.56;100921.38;4853364;29;20643;-83
2023/06/21 11:13:10;;;;;;;5.45;5.05;;;;;;;35.49;30.89;100924.88;4877912;29;20066;-82
2023/06/21 11:15:46;;;;;;;3.95;3.75;;;;;;;35.63;31.32;100930.66;4862368;29;20082;-81
2023/06/21 11:18:19;;;;;;;5.38;4.72;;;;;;;36.03;30.10;100934.34;4890211;29;20042;-81
2023/06/21 11:21:07;;;;;;;4.93;4.55;;;;;;;36.64;29.37;100928.34;4887449;29;20093;-84
2023/06/21 11:23:50;;;;;;;5.57;5.07;;;;;;;36.23;29.71;100938.38;4881969;29;20672;-82
2023/06/21 11:26:18;;;;;;;6.38;5.88;;;;;;;35.32;31.33;100934.91;4861766;29;20072;-82
2023/06/21 11:28:49;;;;;;;5.47;5.07;;;;;;;35.00;31.80;100943.88;4876814;29;20843;-82